Time;durP1;ratioP1;P1;durP2;ratioP2;P2;SDS_P1;SDS_P2;PMS_P1;PMS_P2;Temp;Humidity;BMP_temperature;BMP_pressure;BME280_temperature;BME280_humidity;BME280_pressure;Samples;Min_cycle;Max_cycle;Signal;HPM_P1;HPM_P2
2021/01/11 00:01:09;;;;;;;3.25;2.50;;;20.60;39.70;;;;;;5113250;28;20040;-58
2021/01/11 00:03:34;;;;;;;2.88;2.40;;;20.60;39.70;;;;;;5114073;28;20024;-55
2021/01/11 00:06:00;;;;;;;3.67;2.72;;;20.60;39.70;;;;;;5114649;28;20354;-57
2021/01/11 00:08:25;;;;;;;4.35;2.63;;;20.60;39.70;;;;;;5113594;28;20054;-57
2021/01/11 00:10:51;;;;;;;2.83;2.20;;;20.60;39.70;;;;;;5114283;28;20032;-56
2021/01/11 00:13:17;;;;;;;4.15;2.45;;;20.60;39.70;;;;;;5113446;28;20019;-57
2021/01/11 00:15:42;;;;;;;3.45;2.30;;;20.60;39.70;;;;;;5113837;28;20044;-58
2021/01/11 00:18:08;;;;;;;4.03;2.38;;;20.60;39.60;;;;;;5113535;28;20032;-58
2021/01/11 00:20:34;;;;;;;4.93;2.63;;;20.60;39.60;;;;;;5113111;28;20019;-54
2021/01/11 00:23:00;;;;;;;3.10;2.50;;;20.60;39.60;;;;;;5113451;28;20023;-58
2021/01/11 00:25:26;;;;;;;3.85;2.30;;;20.60;39.60;;;;;;5113669;28;20045;-47
2021/01/11 00:27:51;;;;;;;3.00;2.70;;;20.60;39.60;;;;;;5113811;28;20035;-48
2021/01/11 00:30:18;;;;;;;4.30;2.58;;;20.60;39.50;;;;;;5113414;28;20040;-56
2021/01/11 00:32:43;;;;;;;3.60;2.53;;;20.60;39.50;;;;;;5114265;28;20106;-57
2021/01/11 00:35:09;;;;;;;5.13;2.58;;;20.60;39.50;;;;;;5113704;28;20488;-58
2021/01/11 00:37:36;;;;;;;3.28;2.63;;;20.60;39.50;;;;;;5113704;27;20027;-55
2021/01/11 00:40:03;;;;;;;2.67;2.20;;;20.60;39.50;;;;;;5112504;28;20491;-57
2021/01/11 00:42:34;;;;;;;3.40;2.28;;;20.60;39.40;;;;;;5111507;28;20024;-57
2021/01/11 00:45:01;;;;;;;3.75;2.50;;;20.60;39.50;;;;;;5114016;27;20028;-56
2021/01/11 00:47:26;;;;;;;4.90;2.83;;;20.60;39.40;;;;;;5112856;28;20032;-50
2021/01/11 00:49:52;;;;;;;4.00;2.67;;;20.60;39.50;;;;;;5113784;28;20023;-58
2021/01/11 00:52:17;;;;;;;3.05;2.25;;;20.60;39.40;;;;;;5112852;28;20028;-51
2021/01/11 00:54:43;;;;;;;3.25;2.80;;;20.60;39.40;;;;;;5113416;28;20027;-58
2021/01/11 00:57:09;;;;;;;3.20;2.35;;;20.60;39.40;;;;;;5113136;28;20090;-58
2021/01/11 00:59:35;;;;;;;5.32;2.50;;;20.60;39.40;;;;;;5113324;28;20036;-58
2021/01/11 01:02:01;;;;;;;3.22;1.85;;;20.60;39.50;;;;;;5114154;28;20520;-57
2021/01/11 01:04:27;;;;;;;3.08;2.22;;;20.60;39.40;;;;;;5111751;28;20410;-51
2021/01/11 01:06:52;;;;;;;3.85;2.17;;;20.60;39.40;;;;;;5113413;28;20030;-56
2021/01/11 01:09:18;;;;;;;4.15;2.40;;;20.60;39.40;;;;;;5112273;28;20026;-57
2021/01/11 01:11:44;;;;;;;3.13;2.38;;;20.60;39.30;;;;;;5111767;28;20123;-57
2021/01/11 01:14:10;;;;;;;2.30;2.10;;;20.60;39.30;;;;;;5114078;28;20422;-58
2021/01/11 01:16:36;;;;;;;4.07;2.58;;;20.60;39.30;;;;;;5114057;28;20051;-57
2021/01/11 01:19:02;;;;;;;5.60;2.67;;;20.60;39.30;;;;;;5114472;28;20134;-56
2021/01/11 01:21:28;;;;;;;2.88;2.35;;;20.60;39.30;;;;;;5112466;28;20469;-57
2021/01/11 01:23:54;;;;;;;2.50;1.92;;;20.60;39.20;;;;;;5114541;28;20039;-57
2021/01/11 01:26:20;;;;;;;4.07;2.50;;;20.60;39.30;;;;;;5113322;28;20451;-56
2021/01/11 01:28:46;;;;;;;3.90;2.50;;;20.60;39.20;;;;;;5114538;28;20024;-55
2021/01/11 01:31:12;;;;;;;2.80;2.42;;;20.60;39.20;;;;;;5113901;28;20043;-58
2021/01/11 01:33:37;;;;;;;3.03;2.25;;;20.70;39.30;;;;;;5114058;28;20066;-57
2021/01/11 01:36:03;;;;;;;2.50;2.25;;;20.60;39.20;;;;;;5112938;28;20495;-58
2021/01/11 01:38:29;;;;;;;3.20;2.60;;;20.60;39.20;;;;;;5113464;28;20084;-58
2021/01/11 01:40:55;;;;;;;2.65;2.30;;;20.70;39.20;;;;;;5113656;28;20380;-56
2021/01/11 01:43:21;;;;;;;3.67;2.40;;;20.70;39.20;;;;;;5113014;28;20027;-58
2021/01/11 01:45:49;;;;;;;6.05;2.80;;;20.60;39.10;;;;;;5113819;28;20030;-57
2021/01/11 01:48:15;;;;;;;2.80;1.83;;;20.70;39.20;;;;;;5112839;28;20035;-58
2021/01/11 01:50:41;;;;;;;3.40;2.40;;;20.70;39.20;;;;;;5114019;28;20068;-57
2021/01/11 01:53:08;;;;;;;3.67;2.65;;;20.60;39.10;;;;;;5113881;28;20031;-57
2021/01/11 01:55:36;;;;;;;2.67;2.35;;;20.70;39.10;;;;;;5112764;28;20123;-55
2021/01/11 01:58:04;;;;;;;3.88;2.47;;;20.70;39.10;;;;;;5112153;28;20020;-57
2021/01/11 02:00:31;;;;;;;2.92;2.55;;;20.70;39.10;;;;;;5113688;27;20039;-58
2021/01/11 02:02:56;;;;;;;3.50;2.25;;;20.70;39.10;;;;;;5114125;28;20426;-58
2021/01/11 02:05:22;;;;;;;6.07;2.65;;;20.60;39.10;;;;;;5112853;28;20028;-58
2021/01/11 02:07:47;;;;;;;3.75;2.30;;;20.70;39.10;;;;;;5113667;28;20034;-57
2021/01/11 02:10:59;;;;;;;3.10;2.30;;;20.70;39.00;;;;;;5113050;28;20032;-59
2021/01/11 02:13:30;;;;;;;3.15;2.30;;;20.70;39.00;;;;;;5074402;28;20040;-57
2021/01/11 02:16:07;;;;;;;4.47;2.72;;;20.70;39.00;;;;;;5092965;28;20117;-57
2021/01/11 02:18:57;;;;;;;3.88;2.75;;;20.70;39.00;;;;;;5091937;28;20038;-58
2021/01/11 02:21:50;;;;;;;3.15;2.50;;;20.70;39.00;;;;;;5092097;28;20028;-57
2021/01/11 02:24:19;;;;;;;4.07;2.30;;;20.70;39.00;;;;;;5092231;28;20028;-56
2021/01/11 02:27:03;;;;;;;2.75;2.17;;;20.70;39.00;;;;;;5092433;28;20039;-56
2021/01/11 02:29:29;;;;;;;3.85;2.50;;;20.70;38.90;;;;;;5091888;28;20477;-58
2021/01/11 02:31:57;;;;;;;3.22;2.65;;;20.70;39.00;;;;;;5092760;28;20035;-55
2021/01/11 02:34:24;;;;;;;3.00;2.40;;;20.70;38.90;;;;;;5091711;28;20050;-57
2021/01/11 02:36:51;;;;;;;3.13;2.30;;;20.70;38.90;;;;;;5092560;28;20024;-52
2021/01/11 02:39:17;;;;;;;5.28;2.47;;;20.70;39.00;;;;;;5092116;28;20054;-55
2021/01/11 02:41:43;;;;;;;4.65;2.63;;;20.70;38.90;;;;;;5100847;28;20019;-48
2021/01/11 02:44:09;;;;;;;2.95;2.33;;;20.70;38.90;;;;;;5112960;28;20031;-55
2021/01/11 02:46:35;;;;;;;2.63;2.20;;;20.70;38.90;;;;;;5110846;28;20086;-58
2021/01/11 02:49:09;;;;;;;3.30;2.40;;;20.70;38.90;;;;;;5113146;28;20035;-57
2021/01/11 02:51:50;;;;;;;3.95;2.70;;;20.70;38.90;;;;;;5112121;28;20033;-43
2021/01/11 02:54:17;;;;;;;3.55;2.50;;;20.70;38.90;;;;;;5111840;28;20467;-59
2021/01/11 02:56:45;;;;;;;3.28;2.63;;;20.70;38.90;;;;;;5112667;28;20457;-58
2021/01/11 02:59:36;;;;;;;5.60;2.10;;;20.70;38.90;;;;;;5112234;28;20062;-58
2021/01/11 03:02:11;;;;;;;3.40;2.13;;;20.70;38.80;;;;;;5112597;28;20050;-51
2021/01/11 03:04:38;;;;;;;4.05;2.47;;;20.70;38.80;;;;;;5112038;28;20023;-50
2021/01/11 03:07:08;;;;;;;3.72;2.10;;;20.70;38.90;;;;;;5112347;28;20064;-58
2021/01/11 03:09:40;;;;;;;4.10;2.60;;;20.70;38.80;;;;;;5111859;28;20023;-57
2021/01/11 03:12:07;;;;;;;4.20;2.55;;;20.70;38.80;;;;;;5110882;28;20118;-59
2021/01/11 03:14:32;;;;;;;3.17;2.28;;;20.70;38.80;;;;;;5111230;28;20592;-52
2021/01/11 03:16:58;;;;;;;3.17;2.35;;;20.70;38.80;;;;;;5112664;28;20020;-57
2021/01/11 03:19:24;;;;;;;3.30;2.60;;;20.70;38.80;;;;;;5111417;28;20028;-48
2021/01/11 03:21:50;;;;;;;4.15;2.38;;;20.70;38.80;;;;;;5112306;28;20046;-57
2021/01/11 03:24:16;;;;;;;3.45;2.80;;;20.70;38.80;;;;;;5111897;28;20384;-59
2021/01/11 03:26:42;;;;;;;3.95;2.53;;;20.70;38.80;;;;;;5111916;28;20024;-47
2021/01/11 03:29:08;;;;;;;4.78;2.97;;;20.70;38.80;;;;;;5112714;28;20059;-51
2021/01/11 03:31:34;;;;;;;4.18;2.42;;;20.70;38.70;;;;;;5111509;28;20251;-57
2021/01/11 03:34:00;;;;;;;3.65;2.30;;;20.70;38.70;;;;;;5112298;28;20472;-58
2021/01/11 03:36:25;;;;;;;2.88;2.33;;;20.70;38.70;;;;;;5111186;28;20027;-57
2021/01/11 03:38:52;;;;;;;3.47;2.90;;;20.70;38.70;;;;;;5112391;28;20430;-57
2021/01/11 03:41:17;;;;;;;5.40;3.00;;;20.70;38.70;;;;;;5109657;28;20031;-56
2021/01/11 03:43:44;;;;;;;4.07;2.42;;;20.70;38.70;;;;;;5110926;28;20030;-57
2021/01/11 03:46:13;;;;;;;3.83;2.58;;;20.70;38.70;;;;;;5112161;28;20031;-57
2021/01/11 03:48:38;;;;;;;3.90;3.20;;;20.70;38.70;;;;;;5111496;28;20035;-51
2021/01/11 03:51:05;;;;;;;3.30;2.78;;;20.70;38.70;;;;;;5111882;28;20541;-57
2021/01/11 03:53:31;;;;;;;4.88;2.63;;;20.70;38.70;;;;;;5111423;28;20032;-57
2021/01/11 03:55:56;;;;;;;4.25;2.67;;;20.70;38.70;;;;;;5110815;28;20453;-55
2021/01/11 03:58:22;;;;;;;3.40;2.63;;;20.70;38.70;;;;;;5111295;28;20040;-57
2021/01/11 04:00:49;;;;;;;3.95;2.67;;;20.70;38.70;;;;;;5111780;28;20036;-45
2021/01/11 04:03:16;;;;;;;4.82;2.95;;;20.70;38.60;;;;;;5111976;28;20020;-57
2021/01/11 04:05:45;;;;;;;4.68;3.03;;;20.70;38.60;;;;;;5111591;28;20533;-58
2021/01/11 04:08:11;;;;;;;3.05;2.60;;;20.70;38.60;;;;;;5111770;28;20035;-57
2021/01/11 04:10:37;;;;;;;3.67;2.80;;;20.70;38.60;;;;;;5111115;28;20031;-57
2021/01/11 04:13:03;;;;;;;3.38;2.28;;;20.70;38.60;;;;;;5111412;28;20028;-56
2021/01/11 04:15:29;;;;;;;5.68;2.90;;;20.70;38.60;;;;;;5110806;28;20055;-56
2021/01/11 04:17:54;;;;;;;3.13;2.35;;;20.70;38.60;;;;;;5110420;28;20453;-50
2021/01/11 04:20:20;;;;;;;3.70;2.70;;;20.70;38.60;;;;;;5109470;28;20059;-58
2021/01/11 04:22:46;;;;;;;4.32;2.83;;;20.70;38.60;;;;;;5111229;28;20024;-45
2021/01/11 04:25:11;;;;;;;4.20;2.90;;;20.70;38.50;;;;;;5111584;28;20035;-47
2021/01/11 04:27:37;;;;;;;3.25;2.33;;;20.70;38.50;;;;;;5111188;28;20024;-49
2021/01/11 04:30:07;;;;;;;3.10;2.55;;;20.70;38.60;;;;;;5111174;28;20036;-45
2021/01/11 04:32:38;;;;;;;2.85;2.45;;;20.70;38.60;;;;;;5110892;28;20038;-58
2021/01/11 04:35:06;;;;;;;4.03;2.40;;;20.70;38.60;;;;;;5111847;28;20031;-51
2021/01/11 04:37:32;;;;;;;3.75;2.75;;;20.70;38.50;;;;;;5110934;28;20070;-50
2021/01/11 04:39:57;;;;;;;3.30;2.60;;;20.70;38.50;;;;;;5114978;28;20034;-43
2021/01/11 04:42:41;;;;;;;4.18;2.53;;;20.70;38.50;;;;;;5114523;28;20024;-55
2021/01/11 04:45:08;;;;;;;3.53;2.65;;;20.70;38.50;;;;;;5115224;28;20093;-57
2021/01/11 04:47:35;;;;;;;3.17;2.78;;;20.70;38.50;;;;;;5114191;28;20028;-56
2021/01/11 04:50:06;;;;;;;3.17;2.78;;;20.70;38.50;;;;;;5115333;28;20103;-59
2021/01/11 04:52:32;;;;;;;5.18;3.42;;;20.70;38.50;;;;;;5114420;28;20035;-59
2021/01/11 04:55:05;;;;;;;3.78;2.80;;;20.70;38.50;;;;;;5115109;28;20038;-49
2021/01/11 04:57:39;;;;;;;2.90;2.42;;;20.70;38.60;;;;;;5114261;28;20042;-58
2021/01/11 05:00:09;;;;;;;4.18;2.95;;;20.70;38.50;;;;;;5115053;28;20418;-59
2021/01/11 05:02:43;;;;;;;3.47;2.50;;;20.70;38.50;;;;;;5114210;28;20024;-58
2021/01/11 05:05:13;;;;;;;6.13;2.42;;;20.70;38.50;;;;;;5115050;28;20031;-58
2021/01/11 05:07:39;;;;;;;3.60;2.42;;;20.70;38.50;;;;;;5114074;28;20020;-57
2021/01/11 05:10:06;;;;;;;2.42;2.22;;;20.70;38.50;;;;;;5114591;28;20027;-60
2021/01/11 05:12:33;;;;;;;3.75;2.40;;;20.70;38.50;;;;;;5112695;28;20038;-56
2021/01/11 05:15:18;;;;;;;4.32;2.83;;;20.70;38.50;;;;;;5114279;28;20484;-59
2021/01/11 05:17:45;;;;;;;4.22;2.35;;;20.70;38.50;;;;;;5114503;28;20024;-58
2021/01/11 05:20:24;;;;;;;3.08;2.58;;;20.70;38.50;;;;;;5114477;28;20038;-54
2021/01/11 05:22:52;;;;;;;3.13;2.58;;;20.70;38.50;;;;;;5113257;28;20023;-54
2021/01/11 05:25:23;;;;;;;3.40;2.58;;;20.70;38.50;;;;;;5114466;28;20059;-59
2021/01/11 05:28:07;;;;;;;3.45;2.55;;;20.70;38.40;;;;;;5114489;28;20032;-56
2021/01/11 05:30:43;;;;;;;3.78;2.50;;;20.80;38.50;;;;;;5113058;28;20035;-48
2021/01/11 05:33:16;;;;;;;3.83;2.67;;;20.80;38.50;;;;;;5114419;28;20035;-56
2021/01/11 05:35:42;;;;;;;2.80;2.30;;;20.70;38.40;;;;;;5113706;28;20035;-58
2021/01/11 05:38:18;;;;;;;4.78;2.65;;;20.70;38.40;;;;;;5114187;28;20031;-44
2021/01/11 05:40:45;;;;;;;3.42;2.55;;;20.80;38.40;;;;;;5113728;28;20027;-43
2021/01/11 05:43:21;;;;;;;4.78;2.55;;;20.70;38.40;;;;;;5113870;28;20118;-47
2021/01/11 05:45:48;;;;;;;4.05;2.92;;;20.80;38.40;;;;;;5113660;28;20028;-59
2021/01/11 05:48:17;;;;;;;3.28;2.58;;;20.80;38.40;;;;;;5113948;28;20035;-58
2021/01/11 05:50:44;;;;;;;4.82;2.70;;;20.80;38.40;;;;;;5112773;28;20114;-58
2021/01/11 05:53:14;;;;;;;3.38;2.90;;;20.80;38.40;;;;;;5113671;28;20476;-58
2021/01/11 05:55:40;;;;;;;3.85;2.50;;;20.80;38.40;;;;;;5111917;28;20573;-59
2021/01/11 05:58:06;;;;;;;3.28;2.50;;;20.80;38.30;;;;;;5113913;28;20034;-57
2021/01/11 06:00:37;;;;;;;3.20;2.40;;;20.70;38.30;;;;;;5111678;28;20039;-51
2021/01/11 06:03:05;;;;;;;2.95;2.40;;;20.80;38.30;;;;;;5113633;28;20380;-46
2021/01/11 06:05:32;;;;;;;3.10;2.30;;;20.70;38.30;;;;;;5112636;28;20032;-59
2021/01/11 06:07:59;;;;;;;5.03;2.70;;;20.80;38.30;;;;;;5113199;28;20028;-56
2021/01/11 06:10:25;;;;;;;3.47;2.30;;;20.80;38.30;;;;;;5111605;28;20031;-58
2021/01/11 06:12:52;;;;;;;3.70;2.55;;;20.70;38.30;;;;;;5113187;28;20572;-58
2021/01/11 06:15:20;;;;;;;3.00;2.53;;;20.70;38.30;;;;;;5113314;28;20076;-56
2021/01/11 06:17:48;;;;;;;3.55;2.70;;;20.70;38.30;;;;;;5112718;28;20020;-58
2021/01/11 06:20:25;;;;;;;2.88;2.40;;;20.70;38.30;;;;;;5113396;28;20015;-41
2021/01/11 06:22:51;;;;;;;3.75;2.92;;;20.70;38.20;;;;;;5113041;28;20027;-56
2021/01/11 06:25:22;;;;;;;3.53;2.80;;;20.80;38.30;;;;;;5113375;28;20362;-58
2021/01/11 06:27:58;;;;;;;3.53;2.47;;;20.70;38.30;;;;;;5112881;28;20476;-55
2021/01/11 06:30:36;;;;;;;3.42;2.78;;;20.70;38.20;;;;;;5112192;28;20449;-58
2021/01/11 06:33:14;;;;;;;5.05;2.58;;;20.70;38.20;;;;;;5112955;28;20031;-57
2021/01/11 06:35:45;;;;;;;2.55;2.35;;;20.80;38.20;;;;;;5112080;28;20030;-46
2021/01/11 06:38:18;;;;;;;3.00;2.53;;;20.80;38.20;;;;;;5113091;28;20088;-56
2021/01/11 06:40:45;;;;;;;4.15;2.78;;;20.80;38.20;;;;;;5111102;28;20031;-59
2021/01/11 06:43:11;;;;;;;3.50;2.38;;;20.80;38.20;;;;;;5112923;28;20028;-50
2021/01/11 06:45:41;;;;;;;3.03;2.35;;;20.80;38.20;;;;;;5112266;28;20035;-58
2021/01/11 06:48:09;;;;;;;3.50;2.88;;;20.80;38.20;;;;;;5112714;28;20026;-55
2021/01/11 06:50:35;;;;;;;3.75;2.75;;;20.70;38.10;;;;;;5111806;28;20031;-52
2021/01/11 06:53:03;;;;;;;3.20;2.60;;;20.70;38.20;;;;;;5112908;28;20035;-51
2021/01/11 06:55:29;;;;;;;3.45;2.45;;;20.70;38.20;;;;;;5111986;28;20027;-57
2021/01/11 06:57:59;;;;;;;3.30;2.53;;;20.80;38.30;;;;;;5112961;28;20367;-56
2021/01/11 07:00:37;;;;;;;3.75;2.78;;;20.70;38.20;;;;;;5111400;28;20111;-59
2021/01/11 07:03:07;;;;;;;2.78;2.35;;;20.70;38.20;;;;;;5112252;28;20027;-58
2021/01/11 07:05:37;;;;;;;3.60;2.80;;;20.80;38.20;;;;;;5111690;28;20055;-55
2021/01/11 07:08:12;;;;;;;3.65;2.25;;;20.80;38.20;;;;;;5112275;28;20027;-47
2021/01/11 07:10:46;;;;;;;2.90;2.50;;;20.70;38.20;;;;;;5111720;28;20027;-55
2021/01/11 07:13:17;;;;;;;4.20;2.60;;;20.80;38.20;;;;;;5112654;28;20046;-58
2021/01/11 07:16:05;;;;;;;2.75;2.33;;;20.80;38.20;;;;;;5111749;28;20175;-55
2021/01/11 07:18:37;;;;;;;5.93;2.90;;;20.80;38.10;;;;;;5111299;28;20547;-56
2021/01/11 07:21:23;;;;;;;2.78;2.58;;;20.80;38.20;;;;;;5112500;28;20035;-56
2021/01/11 07:23:49;;;;;;;3.35;2.78;;;20.80;38.20;;;;;;5112048;28;20042;-50
2021/01/11 07:26:20;;;;;;;3.15;2.85;;;20.70;38.10;;;;;;5112402;28;20020;-55
2021/01/11 07:28:53;;;;;;;3.70;2.47;;;20.70;38.10;;;;;;5111688;28;20457;-55
2021/01/11 07:31:22;;;;;;;3.88;2.60;;;20.80;38.10;;;;;;5112352;28;20046;-55
2021/01/11 07:34:01;;;;;;;3.08;2.10;;;20.80;38.10;;;;;;5111283;28;20532;-57
2021/01/11 07:36:31;;;;;;;3.45;2.63;;;20.70;38.10;;;;;;5111637;28;20093;-53
2021/01/11 07:39:15;;;;;;;4.30;2.47;;;20.80;38.10;;;;;;5112020;28;20518;-61
2021/01/11 07:42:05;;;;;;;3.78;2.72;;;20.80;38.10;;;;;;5109856;28;20118;-56
2021/01/11 07:44:34;;;;;;;5.20;2.85;;;20.80;38.10;;;;;;5111327;28;20020;-54
2021/01/11 07:47:04;;;;;;;3.55;2.70;;;20.80;38.10;;;;;;5112314;28;20023;-49
2021/01/11 07:49:35;;;;;;;4.30;2.92;;;20.70;38.00;;;;;;5111180;28;20062;-54
2021/01/11 07:52:07;;;;;;;5.67;3.00;;;20.80;38.10;;;;;;5111911;28;20057;-51
2021/01/11 07:54:34;;;;;;;;;;;20.80;38.00;;;;;;5111509;28;20408;-45
2021/01/11 07:56:59;;;;;;;2.85;2.45;;;20.80;38.10;;;;;;5112003;28;19926;-56
2021/01/11 07:59:25;;;;;;;3.17;2.53;;;20.80;38.10;;;;;;5111605;28;20036;-59
2021/01/11 08:01:51;;;;;;;3.50;2.85;;;20.80;38.00;;;;;;5112180;28;20476;-56
2021/01/11 08:04:18;;;;;;;3.60;2.72;;;20.80;38.10;;;;;;5111992;28;20178;-52
2021/01/11 08:06:50;;;;;;;3.75;2.70;;;20.80;38.10;;;;;;5111287;28;20023;-53
2021/01/11 08:09:17;;;;;;;5.90;2.80;;;20.80;38.00;;;;;;5111847;28;20019;-56
2021/01/11 08:11:43;;;;;;;4.75;2.63;;;20.80;38.00;;;;;;5109565;27;20030;-49
2021/01/11 08:14:10;;;;;;;4.32;3.00;;;20.80;38.10;;;;;;5114733;27;20024;-55
2021/01/11 08:16:36;;;;;;;6.13;2.78;;;20.80;38.10;;;;;;5110277;27;20131;-58
2021/01/11 08:19:12;;;;;;;3.33;2.40;;;20.80;38.10;;;;;;5114085;28;20496;-56
2021/01/11 08:21:39;;;;;;;4.22;2.75;;;20.80;38.10;;;;;;5114995;28;20477;-55
2021/01/11 08:24:09;;;;;;;3.42;2.75;;;20.80;38.20;;;;;;5115277;28;20032;-56
2021/01/11 08:26:46;;;;;;;3.72;2.58;;;20.80;38.10;;;;;;5112517;27;20043;-54
2021/01/11 08:29:12;;;;;;;5.28;3.10;;;20.80;38.30;;;;;;5113965;27;20028;-57
2021/01/11 08:31:39;;;;;;;5.25;2.80;;;20.80;38.20;;;;;;5114482;28;20094;-55
2021/01/11 08:34:06;;;;;;;5.38;3.17;;;20.80;38.60;;;;;;5114877;27;20574;-56
2021/01/11 08:36:32;;;;;;;4.03;2.92;;;20.80;38.60;;;;;;5113706;28;20020;-54
2021/01/11 08:39:11;;;;;;;6.30;3.15;;;20.80;38.80;;;;;;5111145;27;20160;-60
2021/01/11 08:41:48;;;;;;;5.15;2.92;;;20.80;38.80;;;;;;5112652;28;20061;-57
2021/01/11 08:44:28;;;;;;;4.13;2.60;;;20.90;39.10;;;;;;5114006;28;20046;-58
2021/01/11 08:46:55;;;;;;;5.55;2.60;;;20.80;39.20;;;;;;5110580;28;20036;-53
2021/01/11 08:49:21;;;;;;;5.10;2.97;;;20.80;39.10;;;;;;5113376;28;20055;-57
2021/01/11 08:51:48;;;;;;;4.88;2.90;;;20.90;39.20;;;;;;5111742;28;20170;-55
2021/01/11 08:54:30;;;;;;;4.38;2.55;;;20.80;39.10;;;;;;5113659;28;20039;-57
2021/01/11 08:56:57;;;;;;;5.10;2.70;;;20.90;39.20;;;;;;5113888;28;20073;-55
2021/01/11 08:59:25;;;;;;;6.45;3.13;;;20.90;39.20;;;;;;5113749;28;20135;-51
2021/01/11 09:01:50;;;;;;;4.53;3.20;;;20.90;39.10;;;;;;5112835;28;20192;-58
2021/01/11 09:04:33;;;;;;;4.03;2.85;;;20.90;39.10;;;;;;5113516;28;20110;-60
2021/01/11 09:07:00;;;;;;;3.55;2.50;;;20.80;39.20;;;;;;5112010;28;20054;-57
2021/01/11 09:09:28;;;;;;;3.58;2.90;;;20.90;39.10;;;;;;5113043;28;20046;-54
2021/01/11 09:12:07;;;;;;;4.53;3.28;;;20.90;39.10;;;;;;5108165;27;20032;-50
2021/01/11 09:14:35;;;;;;;3.88;2.83;;;20.80;39.00;;;;;;5143021;27;20031;-48
2021/01/11 09:17:05;;;;;;;5.95;3.20;;;20.80;39.00;;;;;;5113087;28;20446;-53
2021/01/11 09:19:32;;;;;;;6.82;2.80;;;20.90;39.20;;;;;;5112429;28;20031;-50
2021/01/11 09:22:06;;;;;;;3.15;2.70;;;20.90;39.70;;;;;;5113419;28;20028;-47
2021/01/11 09:24:35;;;;;;;4.20;2.78;;;20.90;39.10;;;;;;5111701;28;20063;-50
2021/01/11 09:27:00;;;;;;;4.95;3.08;;;20.90;39.00;;;;;;5113186;28;20055;-57
2021/01/11 09:29:26;;;;;;;4.65;2.63;;;20.80;39.10;;;;;;5112672;28;20059;-57
2021/01/11 09:31:52;;;;;;;5.40;3.03;;;20.80;39.00;;;;;;5112381;28;20055;-54
2021/01/11 09:34:19;;;;;;;4.03;2.63;;;20.80;39.00;;;;;;5113168;27;20034;-58
2021/01/11 09:36:45;;;;;;;3.72;2.80;;;20.80;39.20;;;;;;5111758;28;20026;-49
2021/01/11 09:39:13;;;;;;;3.47;2.60;;;20.90;39.30;;;;;;5109707;28;20032;-56
2021/01/11 09:41:43;;;;;;;5.30;2.65;;;20.90;39.20;;;;;;5112313;27;20031;-50
2021/01/11 09:44:09;;;;;;;4.15;2.53;;;20.90;39.20;;;;;;5109017;27;20449;-51
2021/01/11 09:46:46;;;;;;;5.75;2.50;;;20.90;39.20;;;;;;5114648;27;20020;-55
2021/01/11 09:49:12;;;;;;;10.20;2.83;;;20.90;39.30;;;;;;5115786;27;20389;-64
2021/01/11 09:51:38;;;;;;;5.13;2.90;;;21.00;39.40;;;;;;5111318;28;20103;-52
2021/01/11 09:54:05;;;;;;;3.20;2.60;;;21.00;39.40;;;;;;5112662;28;20392;-57
2021/01/11 09:56:30;;;;;;;2.80;2.53;;;21.00;39.30;;;;;;5111817;28;20034;-58
2021/01/11 09:58:56;;;;;;;6.05;3.17;;;21.00;39.40;;;;;;5112607;28;20023;-56
2021/01/11 10:01:22;;;;;;;8.55;2.92;;;20.90;39.40;;;;;;5112560;28;20032;-59
2021/01/11 10:03:48;;;;;;;4.68;2.60;;;20.90;39.60;;;;;;5111781;28;20490;-44
2021/01/11 10:06:15;;;;;;;6.30;2.70;;;20.90;39.60;;;;;;5112016;28;20028;-55
2021/01/11 10:08:41;;;;;;;6.30;2.90;;;20.90;39.60;;;;;;5111804;28;20028;-61
2021/01/11 10:11:18;;;;;;;3.83;2.47;;;20.90;39.60;;;;;;5114131;27;20138;-58
2021/01/11 10:13:43;;;;;;;7.65;2.72;;;20.90;39.70;;;;;;5111314;28;20027;-59
2021/01/11 10:16:10;;;;;;;3.72;2.67;;;20.90;39.70;;;;;;5107826;27;20055;-58
2021/01/11 10:18:37;;;;;;;6.38;3.13;;;20.90;39.80;;;;;;5110194;27;20543;-54
2021/01/11 10:21:02;;;;;;;7.03;2.83;;;20.90;39.90;;;;;;5112630;28;20026;-57
2021/01/11 10:23:28;;;;;;;3.17;2.40;;;20.90;39.90;;;;;;5111894;27;20369;-57
2021/01/11 10:25:55;;;;;;;7.18;3.03;;;20.90;40.00;;;;;;5113792;27;20019;-62
2021/01/11 10:28:21;;;;;;;6.55;2.63;;;20.90;40.00;;;;;;5113319;27;20038;-52
2021/01/11 10:30:46;;;;;;;6.05;2.67;;;20.90;40.00;;;;;;5110796;28;20111;-53
2021/01/11 10:33:12;;;;;;;3.65;2.65;;;20.90;40.00;;;;;;5111655;28;20023;-56
2021/01/11 10:35:39;;;;;;;3.75;2.53;;;20.90;40.00;;;;;;5111038;28;20540;-55
2021/01/11 10:38:05;;;;;;;4.32;2.60;;;20.90;40.00;;;;;;5109094;27;20368;-58
2021/01/11 10:40:30;;;;;;;7.93;3.17;;;20.90;40.00;;;;;;5110574;28;20087;-59
2021/01/11 10:42:56;;;;;;;4.05;2.83;;;20.90;40.00;;;;;;5111117;27;20110;-58
2021/01/11 10:45:21;;;;;;;3.55;2.60;;;20.90;40.00;;;;;;5111772;28;20027;-56
2021/01/11 10:47:50;;;;;;;3.90;2.60;;;20.90;40.00;;;;;;5111805;27;20566;-59
2021/01/11 10:50:16;;;;;;;4.07;2.72;;;20.90;40.10;;;;;;5111021;27;20357;-58
2021/01/11 10:52:42;;;;;;;5.30;2.42;;;20.90;40.00;;;;;;5110601;28;20027;-57
2021/01/11 10:55:08;;;;;;;3.70;2.63;;;20.90;40.00;;;;;;5096387;27;20042;-59
2021/01/11 10:57:33;;;;;;;4.72;2.42;;;20.90;40.00;;;;;;5110361;28;20425;-57
2021/01/11 10:59:59;;;;;;;7.22;2.33;;;20.90;40.10;;;;;;5110101;28;20123;-53
2021/01/11 11:02:24;;;;;;;6.80;3.35;;;20.90;40.00;;;;;;5111137;28;20110;-59
2021/01/11 11:04:50;;;;;;;3.70;2.53;;;20.90;40.10;;;;;;5110216;28;20023;-61
2021/01/11 11:07:16;;;;;;;5.07;2.35;;;20.90;40.00;;;;;;5111124;28;20077;-57
2021/01/11 11:09:41;;;;;;;3.35;2.40;;;20.90;40.10;;;;;;5110512;28;20019;-56
2021/01/11 11:12:07;;;;;;;3.53;2.50;;;20.90;40.10;;;;;;5112601;28;20028;-57
2021/01/11 11:14:33;;;;;;;3.67;2.50;;;20.90;40.10;;;;;;5110525;28;20027;-50
2021/01/11 11:16:58;;;;;;;9.05;2.60;;;20.90;40.00;;;;;;5109069;27;20529;-58
2021/01/11 11:19:24;;;;;;;4.20;2.38;;;20.90;40.10;;;;;;5112318;28;20486;-56
2021/01/11 11:21:50;;;;;;;7.22;2.60;;;20.90;40.00;;;;;;5109800;28;20338;-55
2021/01/11 11:24:16;;;;;;;5.60;2.63;;;21.00;40.10;;;;;;5111026;28;20535;-56
2021/01/11 11:26:42;;;;;;;6.72;3.70;;;21.00;40.00;;;;;;5108999;28;20024;-43
2021/01/11 11:29:08;;;;;;;10.40;3.70;;;20.90;39.70;;;;;;5110644;28;20070;-53
2021/01/11 11:31:38;;;;;;;8.05;3.40;;;20.90;39.70;;;;;;5110235;28;20062;-51
2021/01/11 11:34:03;;;;;;;7.50;3.75;;;20.80;39.40;;;;;;5111221;28;20073;-44
2021/01/11 11:36:29;;;;;;;7.68;3.80;;;20.80;39.20;;;;;;5110212;28;20385;-55
2021/01/11 11:38:54;;;;;;;11.98;3.88;;;20.80;39.20;;;;;;5110358;28;20024;-47
2021/01/11 11:41:20;;;;;;;8.95;3.75;;;20.80;39.30;;;;;;5112666;28;20032;-58
2021/01/11 11:43:46;;;;;;;7.85;3.78;;;20.80;39.40;;;;;;5110183;28;20106;-54
2021/01/11 11:46:13;;;;;;;8.80;3.80;;;20.80;39.40;;;;;;5094048;28;20031;-56
2021/01/11 11:48:39;;;;;;;11.77;3.83;;;20.80;39.40;;;;;;5129483;27;20472;-56
2021/01/11 11:51:05;;;;;;;14.93;4.00;;;20.90;39.80;;;;;;5136318;27;20103;-53
2021/01/11 11:53:31;;;;;;;7.05;3.20;;;20.90;39.80;;;;;;5135602;27;20479;-59
2021/01/11 11:55:56;;;;;;;7.40;3.60;;;20.90;40.20;;;;;;5136197;27;20041;-53
2021/01/11 11:58:22;;;;;;;10.65;3.72;;;20.90;40.00;;;;;;5139250;27;20098;-53
2021/01/11 12:00:48;;;;;;;6.88;3.30;;;20.90;40.30;;;;;;5135751;27;20049;-46
2021/01/11 12:03:15;;;;;;;7.97;3.00;;;20.90;40.30;;;;;;5136527;27;20034;-52
2021/01/11 12:05:40;;;;;;;8.00;3.38;;;21.00;40.50;;;;;;5135707;27;20443;-50
2021/01/11 12:08:06;;;;;;;10.25;3.40;;;21.00;40.70;;;;;;5136097;27;20129;-54
2021/01/11 12:10:32;;;;;;;9.80;2.85;;;21.00;40.80;;;;;;5135178;27;20023;-57
2021/01/11 12:12:57;;;;;;;6.53;3.15;;;21.00;41.00;;;;;;5136409;27;20475;-45
2021/01/11 12:15:23;;;;;;;11.77;3.47;;;21.00;41.20;;;;;;5136146;27;20155;-50
2021/01/11 12:17:50;;;;;;;6.07;2.75;;;21.00;41.40;;;;;;5123815;27;20647;-53
2021/01/11 12:20:16;;;;;;;8.95;3.03;;;21.00;41.40;;;;;;5128567;27;20106;-52
2021/01/11 12:22:41;;;;;;;4.95;3.28;;;21.00;41.60;;;;;;5111179;27;20110;-55
2021/01/11 12:25:08;;;;;;;9.07;3.10;;;21.00;41.60;;;;;;5115429;28;20376;-55
2021/01/11 12:27:34;;;;;;;9.43;2.83;;;21.00;41.70;;;;;;5114653;28;20024;-48
2021/01/11 12:30:00;;;;;;;8.98;3.78;;;20.90;41.80;;;;;;5115206;28;20027;-58
2021/01/11 12:32:26;;;;;;;7.63;3.47;;;21.00;41.90;;;;;;5115127;28;20030;-52
2021/01/11 12:34:51;;;;;;;4.93;3.13;;;21.00;41.90;;;;;;5114363;28;20020;-51
2021/01/11 12:37:18;;;;;;;9.93;2.83;;;20.90;41.90;;;;;;5115087;27;20023;-54
2021/01/11 12:39:44;;;;;;;6.70;2.90;;;20.90;42.10;;;;;;5114361;28;20213;-54
2021/01/11 12:42:11;;;;;;;7.65;3.15;;;20.90;42.30;;;;;;5128816;27;20035;-54
2021/01/11 12:44:39;;;;;;;8.00;3.17;;;20.90;42.30;;;;;;5135925;27;20019;-56
2021/01/11 12:47:06;;;;;;;10.32;3.70;;;21.00;42.60;;;;;;5131312;27;20027;-52
2021/01/11 12:49:33;;;;;;;8.65;3.08;;;21.00;42.30;;;;;;5134426;27;20027;-56
2021/01/11 12:51:59;;;;;;;8.82;3.33;;;21.00;42.30;;;;;;5135440;27;20095;-52
2021/01/11 12:54:25;;;;;;;10.73;3.05;;;21.00;42.20;;;;;;5135286;27;20023;-54